Time;durP1;ratioP1;P1;durP2;ratioP2;P2;SDS_P1;SDS_P2;PMS_P1;PMS_P2;Temp;Humidity;BMP_temperature;BMP_pressure;BME280_temperature;BME280_humidity;BME280_pressure;Samples;Min_cycle;Max_cycle;Signal;HPM_P1;HPM_P2
2023/06/23 00:00:28;;;;;;;0.57;0.57;;;19.30;99.90;;;;;;5153979;27;20047;-66
2023/06/23 00:02:54;;;;;;;2.33;0.77;;;19.30;99.90;;;;;;5144569;27;20042;-66
2023/06/23 00:05:20;;;;;;;0.65;0.40;;;19.20;99.90;;;;;;5146125;27;20043;-66
2023/06/23 00:07:46;;;;;;;0.75;0.75;;;19.30;99.90;;;;;;5154050;27;20046;-66
2023/06/23 00:10:11;;;;;;;0.68;0.68;;;19.20;99.90;;;;;;5144234;27;20031;-67
2023/06/23 00:12:41;;;;;;;0.10;0.10;;;19.30;99.90;;;;;;5149439;27;20051;-66
2023/06/23 00:15:16;;;;;;;1.38;1.08;;;19.20;99.90;;;;;;5143130;27;20039;-66
2023/06/23 00:17:47;;;;;;;0.00;0.00;;;19.20;99.90;;;;;;5142882;27;20047;-66
2023/06/23 00:20:13;;;;;;;0.38;0.25;;;19.10;99.90;;;;;;5152345;27;20553;-66
2023/06/23 00:22:40;;;;;;;2.28;0.95;;;19.10;99.90;;;;;;5146838;27;20046;-66
2023/06/23 00:25:09;;;;;;;0.30;0.30;;;19.00;99.90;;;;;;5145882;27;20042;-66
2023/06/23 00:27:37;;;;;;;0.35;0.35;;;19.10;99.90;;;;;;5145243;27;20047;-66
2023/06/23 00:30:02;;;;;;;1.02;0.93;;;19.10;99.90;;;;;;5146158;27;20420;-66
2023/06/23 00:32:28;;;;;;;1.45;0.65;;;19.00;99.90;;;;;;5148632;27;20057;-66
2023/06/23 00:34:54;;;;;;;1.00;0.77;;;19.00;99.90;;;;;;5146551;27;20043;-66
2023/06/23 00:37:19;;;;;;;0.15;0.15;;;19.00;99.90;;;;;;5143485;27;20046;-66
2023/06/23 00:39:45;;;;;;;0.60;0.60;;;19.00;99.90;;;;;;5147300;27;20498;-66
2023/06/23 00:42:11;;;;;;;0.45;0.45;;;18.90;99.90;;;;;;5142744;27;20082;-66
2023/06/23 00:44:37;;;;;;;1.00;0.52;;;18.90;99.90;;;;;;5145980;27;20038;-66
2023/06/23 00:47:04;;;;;;;0.20;0.20;;;18.90;99.90;;;;;;5141730;27;20486;-66
2023/06/23 00:49:30;;;;;;;0.10;0.10;;;18.80;99.90;;;;;;5135742;27;20096;-66
2023/06/23 00:51:58;;;;;;;1.15;1.00;;;18.80;99.90;;;;;;5146698;27;20038;-66
2023/06/23 00:54:28;;;;;;;0.63;0.63;;;18.80;99.90;;;;;;5144105;27;20069;-66
2023/06/23 00:56:58;;;;;;;0.50;0.50;;;18.80;99.90;;;;;;5149440;27;20039;-66
2023/06/23 00:59:28;;;;;;;0.35;0.30;;;18.80;99.90;;;;;;5142936;27;20096;-66
2023/06/23 01:02:01;;;;;;;0.25;0.25;;;18.70;99.90;;;;;;5145113;27;20030;-66
2023/06/23 01:04:32;;;;;;;4.18;3.70;;;18.70;99.90;;;;;;5144728;27;20131;-66
2023/06/23 01:07:40;;;;;;;2.17;1.73;;;18.70;99.90;;;;;;5143843;27;21163;-66
2023/06/23 01:10:29;;;;;;;1.67;0.40;;;18.70;99.90;;;;;;5137768;27;20066;-66
2023/06/23 01:13:07;;;;;;;0.47;0.40;;;18.70;99.90;;;;;;5090873;27;20605;-66
2023/06/23 01:15:37;;;;;;;0.30;0.30;;;18.60;99.90;;;;;;5128587;27;20106;-66
2023/06/23 01:18:15;;;;;;;0.65;0.32;;;18.60;99.90;;;;;;5142766;27;20043;-66
2023/06/23 01:20:46;;;;;;;1.00;1.00;;;18.60;99.90;;;;;;5146509;27;20113;-66
2023/06/23 01:23:20;;;;;;;0.10;0.10;;;18.50;99.90;;;;;;5143316;27;20113;-66
2023/06/23 01:25:54;;;;;;;0.80;0.75;;;18.50;99.90;;;;;;5142215;27;20046;-66
2023/06/23 01:28:31;;;;;;;0.30;0.30;;;18.50;99.90;;;;;;5143329;27;20043;-66
2023/06/23 01:31:00;;;;;;;1.10;0.35;;;18.50;99.90;;;;;;5139556;27;20055;-66
2023/06/23 01:33:37;;;;;;;0.43;0.32;;;18.50;99.90;;;;;;5145816;27;20053;-66
2023/06/23 01:36:09;;;;;;;0.95;0.57;;;18.40;99.90;;;;;;5144151;27;20067;-66
2023/06/23 01:38:47;;;;;;;1.30;1.10;;;18.40;99.90;;;;;;5150091;27;20043;-66
2023/06/23 01:41:18;;;;;;;1.67;0.90;;;18.40;99.90;;;;;;5145425;27;20039;-66
2023/06/23 01:43:48;;;;;;;1.67;0.95;;;18.40;99.90;;;;;;5143677;27;20464;-66
2023/06/23 01:46:18;;;;;;;0.32;0.32;;;18.30;99.90;;;;;;5145390;27;20066;-66
2023/06/23 01:48:48;;;;;;;0.30;0.30;;;18.20;99.90;;;;;;5140902;27;20039;-66
2023/06/23 01:51:17;;;;;;;1.20;1.10;;;18.30;99.90;;;;;;5146135;27;20382;-66
2023/06/23 01:53:45;;;;;;;2.53;1.08;;;18.30;99.90;;;;;;5141312;27;20122;-66
2023/06/23 01:56:13;;;;;;;0.00;0.00;;;18.30;99.90;;;;;;5145363;27;20454;-66
2023/06/23 01:58:39;;;;;;;0.28;0.28;;;18.20;99.90;;;;;;5144037;27;20485;-66
2023/06/23 02:01:07;;;;;;;0.47;0.47;;;18.20;99.90;;;;;;5141304;27;20045;-66
2023/06/23 02:03:33;;;;;;;0.22;0.22;;;18.20;99.90;;;;;;5140600;27;20435;-66
2023/06/23 02:06:01;;;;;;;0.98;0.40;;;18.20;99.90;;;;;;5148506;27;20043;-66
2023/06/23 02:08:28;;;;;;;0.17;0.17;;;18.20;99.90;;;;;;5141733;27;20050;-66
2023/06/23 02:10:55;;;;;;;1.33;0.63;;;18.20;99.90;;;;;;5149863;27;20042;-66
2023/06/23 02:13:23;;;;;;;0.55;0.55;;;18.20;99.90;;;;;;5145619;27;20043;-66
2023/06/23 02:15:51;;;;;;;0.20;0.20;;;18.20;99.90;;;;;;5141890;27;20484;-66
2023/06/23 02:18:18;;;;;;;2.33;1.02;;;18.10;99.90;;;;;;5145164;27;20042;-66
2023/06/23 02:20:45;;;;;;;1.40;1.30;;;18.20;99.90;;;;;;5143067;27;20493;-66
2023/06/23 02:23:13;;;;;;;0.75;0.75;;;18.10;99.90;;;;;;5125550;27;20091;-66
2023/06/23 02:25:40;;;;;;;0.45;0.43;;;18.10;99.90;;;;;;5145113;27;20138;-66
2023/06/23 02:28:09;;;;;;;0.20;0.20;;;18.10;99.90;;;;;;5147596;27;20050;-66
2023/06/23 02:30:36;;;;;;;1.05;0.25;;;18.20;99.90;;;;;;5144609;27;20437;-66
2023/06/23 02:33:02;;;;;;;3.40;1.30;;;18.20;99.90;;;;;;5144771;27;20047;-66
2023/06/23 02:35:27;;;;;;;0.25;0.22;;;18.20;99.90;;;;;;5140941;27;20039;-66
2023/06/23 02:37:58;;;;;;;1.10;0.90;;;18.20;99.90;;;;;;5144027;27;20042;-66
2023/06/23 02:40:25;;;;;;;0.65;0.52;;;18.10;99.90;;;;;;5143232;27;20050;-66
2023/06/23 02:43:02;;;;;;;0.00;0.00;;;18.10;99.90;;;;;;5141886;27;20046;-66
2023/06/23 02:45:32;;;;;;;0.60;0.60;;;18.10;99.90;;;;;;5142478;27;20458;-66
2023/06/23 02:47:58;;;;;;;0.00;0.00;;;18.10;99.90;;;;;;5125546;27;20042;-66
2023/06/23 02:50:28;;;;;;;0.00;0.00;;;18.10;99.90;;;;;;5138397;27;20108;-66
2023/06/23 02:52:59;;;;;;;0.30;0.20;;;18.10;99.90;;;;;;5147141;27;20471;-66
2023/06/23 02:55:27;;;;;;;0.57;0.57;;;18.00;99.90;;;;;;5142571;27;20042;-66
2023/06/23 02:57:55;;;;;;;2.38;0.35;;;18.00;99.90;;;;;;5145572;27;20050;-66
2023/06/23 03:00:23;;;;;;;0.68;0.68;;;18.00;99.90;;;;;;5149974;27;20035;-66
2023/06/23 03:02:57;;;;;;;0.47;0.47;;;18.00;99.90;;;;;;5145642;27;20398;-66
2023/06/23 03:05:23;;;;;;;1.55;1.20;;;17.90;99.90;;;;;;5145463;27;20122;-66
2023/06/23 03:07:51;;;;;;;0.45;0.40;;;18.00;99.90;;;;;;5146945;27;20114;-66
2023/06/23 03:10:17;;;;;;;0.00;0.00;;;17.90;99.90;;;;;;5155471;27;20412;-66
2023/06/23 03:12:43;;;;;;;0.30;0.30;;;17.90;99.90;;;;;;5141969;27;20047;-66
2023/06/23 03:15:09;;;;;;;0.35;0.25;;;17.90;99.90;;;;;;5148444;27;20077;-66
2023/06/23 03:17:37;;;;;;;0.30;0.30;;;17.90;99.90;;;;;;5144942;27;20058;-66
2023/06/23 03:20:29;;;;;;;0.00;0.00;;;17.90;99.90;;;;;;5143799;27;20039;-66
2023/06/23 03:23:02;;;;;;;0.32;0.13;;;17.90;99.90;;;;;;5154716;27;20050;-66
2023/06/23 03:25:28;;;;;;;1.40;0.35;;;17.90;99.90;;;;;;5141838;27;20030;-66
2023/06/23 03:27:57;;;;;;;0.38;0.38;;;17.90;99.90;;;;;;5146914;27;20470;-66
2023/06/23 03:30:34;;;;;;;0.20;0.20;;;17.80;99.90;;;;;;5144236;27;20398;-66
2023/06/23 03:33:03;;;;;;;0.52;0.52;;;17.80;99.90;;;;;;5149269;27;20043;-66
2023/06/23 03:35:36;;;;;;;0.85;0.85;;;17.80;99.90;;;;;;5151079;27;20031;-66
2023/06/23 03:38:07;;;;;;;0.10;0.10;;;17.80;99.90;;;;;;5144035;27;20050;-66
2023/06/23 03:40:39;;;;;;;1.65;1.05;;;17.80;99.90;;;;;;5147471;27;20604;-66
2023/06/23 03:43:13;;;;;;;1.15;0.70;;;17.80;99.90;;;;;;5144094;27;20051;-66
2023/06/23 03:45:41;;;;;;;0.65;0.65;;;17.80;99.90;;;;;;5146949;27;20049;-66
2023/06/23 03:48:11;;;;;;;0.20;0.20;;;17.80;99.90;;;;;;5147950;27;20107;-66
2023/06/23 03:50:39;;;;;;;0.90;0.90;;;17.70;99.90;;;;;;5143880;27;20049;-66
2023/06/23 03:53:06;;;;;;;0.28;0.28;;;17.80;99.90;;;;;;5143818;27;20037;-66
2023/06/23 03:55:33;;;;;;;0.38;0.38;;;17.70;99.90;;;;;;5151583;27;20035;-66
2023/06/23 03:58:05;;;;;;;0.17;0.17;;;17.80;99.90;;;;;;5145373;27;20046;-66
2023/06/23 04:00:33;;;;;;;0.30;0.23;;;17.80;99.90;;;;;;5146207;27;20474;-66
2023/06/23 04:03:01;;;;;;;1.20;0.38;;;17.70;99.90;;;;;;5145503;27;20431;-66
2023/06/23 04:05:30;;;;;;;0.28;0.28;;;17.80;99.90;;;;;;5143382;27;20043;-66
2023/06/23 04:08:00;;;;;;;0.20;0.20;;;17.80;99.90;;;;;;5146020;27;20543;-66
2023/06/23 04:10:27;;;;;;;1.38;0.68;;;17.80;99.90;;;;;;5144907;27;20042;-66
2023/06/23 04:12:54;;;;;;;0.20;0.20;;;17.80;99.90;;;;;;5151537;27;20082;-66
2023/06/23 04:15:23;;;;;;;0.10;0.10;;;17.80;99.90;;;;;;5145592;27;20057;-66
2023/06/23 04:17:51;;;;;;;0.20;0.20;;;17.80;99.90;;;;;;5144249;27;20043;-66
2023/06/23 04:20:19;;;;;;;0.40;0.40;;;17.80;99.90;;;;;;5143027;27;20047;-66
2023/06/23 04:22:46;;;;;;;0.00;0.00;;;17.80;99.90;;;;;;5143855;27;20049;-66
2023/06/23 04:25:13;;;;;;;3.95;1.00;;;17.80;99.90;;;;;;5144245;27;20047;-66
2023/06/23 04:27:40;;;;;;;0.10;0.10;;;17.80;99.90;;;;;;5142919;27;20039;-66
2023/06/23 04:30:07;;;;;;;0.30;0.30;;;17.80;99.90;;;;;;5143901;27;20470;-66
2023/06/23 04:32:35;;;;;;;0.00;0.00;;;17.90;99.90;;;;;;5145027;27;20054;-66
2023/06/23 04:35:01;;;;;;;0.43;0.38;;;17.90;99.90;;;;;;5144307;27;20394;-66
2023/06/23 04:37:33;;;;;;;0.20;0.20;;;17.90;99.90;;;;;;5146294;27;20050;-66
2023/06/23 04:40:29;;;;;;;0.00;0.00;;;18.00;99.90;;;;;;5146520;27;20494;-66
2023/06/23 04:43:09;;;;;;;0.32;0.32;;;17.90;99.90;;;;;;5142363;27;20540;-66
2023/06/23 04:45:39;;;;;;;0.60;0.60;;;18.00;99.90;;;;;;5149193;27;20513;-66
2023/06/23 04:48:09;;;;;;;0.20;0.20;;;18.00;99.90;;;;;;5144630;27;20486;-66
2023/06/23 04:50:35;;;;;;;0.43;0.43;;;18.00;99.90;;;;;;5142250;27;20455;-66
2023/06/23 04:53:05;;;;;;;0.15;0.15;;;18.00;99.90;;;;;;5143489;27;20463;-66
2023/06/23 04:55:34;;;;;;;0.10;0.10;;;18.00;99.90;;;;;;5141929;27;20104;-66
2023/06/23 04:58:03;;;;;;;0.85;0.85;;;18.00;99.90;;;;;;5151965;27;20110;-66
2023/06/23 05:00:30;;;;;;;0.17;0.17;;;18.10;99.90;;;;;;5144219;27;20520;-66
2023/06/23 05:02:59;;;;;;;0.40;0.40;;;18.10;99.90;;;;;;5150038;27;20043;-66
2023/06/23 05:05:27;;;;;;;0.88;0.80;;;18.10;99.90;;;;;;5146220;27;20055;-66
2023/06/23 05:07:55;;;;;;;0.85;0.17;;;18.10;99.90;;;;;;5144086;27;20043;-66
2023/06/23 05:10:22;;;;;;;0.45;0.45;;;18.20;99.90;;;;;;5142138;27;20046;-66
2023/06/23 05:12:50;;;;;;;0.20;0.20;;;18.20;99.90;;;;;;5149509;27;20051;-66
2023/06/23 05:15:19;;;;;;;0.25;0.25;;;18.30;99.90;;;;;;5142218;27;20043;-66
2023/06/23 05:17:47;;;;;;;0.75;0.65;;;18.30;99.90;;;;;;5143162;27;20054;-66
2023/06/23 05:20:15;;;;;;;0.82;0.82;;;18.40;99.90;;;;;;5143755;27;20089;-66
2023/06/23 05:22:43;;;;;;;0.47;0.47;;;18.40;99.90;;;;;;5145554;27;20030;-66
2023/06/23 05:25:10;;;;;;;0.10;0.10;;;18.50;99.90;;;;;;5143452;27;20039;-66
2023/06/23 05:27:37;;;;;;;0.00;0.00;;;18.60;99.90;;;;;;5142731;27;20042;-66
2023/06/23 05:30:05;;;;;;;0.00;0.00;;;18.60;99.90;;;;;;5142298;27;20035;-66
2023/06/23 05:32:33;;;;;;;0.82;0.70;;;18.60;99.90;;;;;;5143874;27;20055;-66
2023/06/23 05:35:03;;;;;;;0.20;0.20;;;18.70;99.90;;;;;;5145309;27;20533;-66
2023/06/23 05:37:33;;;;;;;0.85;0.85;;;18.70;99.90;;;;;;5149599;27;20038;-66
2023/06/23 05:40:03;;;;;;;0.10;0.05;;;18.80;99.90;;;;;;5144894;27;20038;-66
2023/06/23 05:42:32;;;;;;;0.05;0.05;;;18.80;99.90;;;;;;5142709;27;20035;-66
2023/06/23 05:44:59;;;;;;;0.28;0.28;;;18.80;99.90;;;;;;5144658;27;20038;-66
2023/06/23 05:47:28;;;;;;;0.77;0.77;;;18.90;99.90;;;;;;5142964;27;20185;-66
2023/06/23 05:49:57;;;;;;;0.10;0.10;;;18.90;99.90;;;;;;5139523;27;20027;-66
2023/06/23 05:52:23;;;;;;;0.08;0.08;;;18.90;99.90;;;;;;5144308;27;20061;-66
2023/06/23 05:54:54;;;;;;;0.03;0.03;;;18.80;99.90;;;;;;5144248;27;20113;-66
2023/06/23 05:57:28;;;;;;;0.10;0.10;;;18.80;99.90;;;;;;5138606;27;20054;-66
2023/06/23 06:00:09;;;;;;;1.98;0.93;;;18.80;99.90;;;;;;5141358;27;20112;-66
2023/06/23 06:02:39;;;;;;;0.52;0.30;;;18.90;99.90;;;;;;5141947;27;20042;-66
2023/06/23 06:05:07;;;;;;;0.25;0.25;;;18.90;99.90;;;;;;5139781;27;20092;-66
2023/06/23 06:07:35;;;;;;;0.10;0.10;;;18.90;99.90;;;;;;5142693;27;20056;-66
2023/06/23 06:10:07;;;;;;;0.00;0.00;;;18.90;99.90;;;;;;5142085;27;20447;-66
2023/06/23 06:12:34;;;;;;;0.00;0.00;;;18.90;99.90;;;;;;5116273;27;20042;-66
2023/06/23 06:15:02;;;;;;;0.00;0.00;;;19.00;99.90;;;;;;5144846;27;20045;-66
2023/06/23 06:17:29;;;;;;;0.00;0.00;;;19.00;99.90;;;;;;5142446;27;20126;-66
2023/06/23 06:19:59;;;;;;;0.88;0.85;;;19.00;99.90;;;;;;5142080;27;20043;-66
2023/06/23 06:22:26;;;;;;;0.30;0.15;;;19.10;99.90;;;;;;5140182;27;20234;-66
2023/06/23 06:24:53;;;;;;;0.10;0.10;;;19.10;99.90;;;;;;5141778;27;20031;-66
2023/06/23 06:27:20;;;;;;;0.05;0.05;;;19.20;99.90;;;;;;5123824;27;20043;-66
2023/06/23 06:29:47;;;;;;;0.22;0.22;;;19.20;99.90;;;;;;5143218;27;20049;-66
2023/06/23 06:32:14;;;;;;;0.00;0.00;;;19.30;99.90;;;;;;5148683;27;20497;-66
2023/06/23 06:34:43;;;;;;;0.38;0.38;;;19.40;99.90;;;;;;5147370;27;20047;-66
2023/06/23 06:37:10;;;;;;;0.20;0.20;;;19.50;99.90;;;;;;5142336;27;20043;-66
2023/06/23 06:39:37;;;;;;;0.00;0.00;;;19.50;99.90;;;;;;5144905;27;20050;-66
2023/06/23 06:42:03;;;;;;;0.00;0.00;;;19.50;99.90;;;;;;5138643;27;20490;-66
2023/06/23 06:44:29;;;;;;;0.13;0.13;;;19.60;99.90;;;;;;5142883;27;20477;-66
2023/06/23 06:46:55;;;;;;;0.10;0.10;;;19.60;99.90;;;;;;5142078;27;20051;-66
2023/06/23 06:49:23;;;;;;;0.00;0.00;;;19.50;99.90;;;;;;5143018;27;20031;-67
2023/06/23 06:51:50;;;;;;;0.32;0.32;;;19.50;99.90;;;;;;5144548;27;20063;-66
2023/06/23 06:54:17;;;;;;;0.00;0.00;;;19.50;99.90;;;;;;5144018;27;20505;-66
2023/06/23 06:56:44;;;;;;;1.55;1.27;;;19.60;99.90;;;;;;5141484;27;20167;-67
2023/06/23 06:59:10;;;;;;;0.00;0.00;;;19.60;99.90;;;;;;5147369;27;20039;-67
2023/06/23 07:01:36;;;;;;;0.10;0.10;;;19.70;99.90;;;;;;5141547;27;20042;-66
2023/06/23 07:04:04;;;;;;;0.00;0.00;;;19.80;99.90;;;;;;5142953;27;20106;-66
2023/06/23 07:06:30;;;;;;;2.13;1.95;;;19.80;99.90;;;;;;5144212;27;20039;-66
2023/06/23 07:08:56;;;;;;;0.22;0.22;;;19.80;99.90;;;;;;5143445;27;20513;-67
2023/06/23 07:11:21;;;;;;;0.00;0.00;;;19.90;99.90;;;;;;5145054;27;20561;-67
2023/06/23 07:13:47;;;;;;;3.00;0.20;;;19.90;99.90;;;;;;5143045;27;20078;-66
2023/06/23 07:16:12;;;;;;;0.20;0.20;;;20.00;99.90;;;;;;5125631;27;20065;-67
2023/06/23 07:18:38;;;;;;;0.00;0.00;;;20.00;99.90;;;;;;5144440;27;20050;-67
2023/06/23 07:21:04;;;;;;;0.25;0.20;;;20.10;99.90;;;;;;5142430;27;20043;-67
2023/06/23 07:23:30;;;;;;;0.10;0.10;;;20.10;99.90;;;;;;5123337;27;20052;-67
2023/06/23 07:25:57;;;;;;;0.38;0.32;;;20.10;99.90;;;;;;5144919;27;20065;-67
2023/06/23 07:28:23;;;;;;;0.00;0.00;;;20.20;99.90;;;;;;5141078;27;20063;-67
2023/06/23 07:30:49;;;;;;;0.10;0.10;;;20.20;99.90;;;;;;5139469;27;20075;-67
2023/06/23 07:33:14;;;;;;;0.22;0.15;;;20.30;99.90;;;;;;5150563;27;20053;-67
2023/06/23 07:35:40;;;;;;;0.10;0.10;;;20.40;99.90;;;;;;5144382;27;20035;-67
2023/06/23 07:38:05;;;;;;;0.00;0.00;;;20.40;99.90;;;;;;5143352;27;20047;-67
2023/06/23 07:40:33;;;;;;;1.60;0.68;;;20.40;99.90;;;;;;5141731;27;20039;-67
2023/06/23 07:42:58;;;;;;;0.00;0.00;;;20.50;99.90;;;;;;5144280;27;20080;-67
2023/06/23 07:45:24;;;;;;;0.00;0.00;;;20.60;99.90;;;;;;5145271;27;20077;-67
2023/06/23 07:47:50;;;;;;;0.03;0.03;;;20.70;99.90;;;;;;5131460;27;20047;-67
2023/06/23 07:50:15;;;;;;;0.00;0.00;;;20.70;99.90;;;;;;5145275;27;20046;-67
2023/06/23 07:52:41;;;;;;;0.20;0.10;;;20.80;99.90;;;;;;5125636;27;20051;-67
2023/06/23 07:55:07;;;;;;;0.00;0.00;;;20.80;99.90;;;;;;5149763;27;20030;-67
2023/06/23 07:57:32;;;;;;;0.20;0.10;;;20.80;99.90;;;;;;5140558;27;20043;-67
2023/06/23 07:59:58;;;;;;;0.50;0.20;;;21.00;99.90;;;;;;5148520;27;20387;-67
2023/06/23 08:02:24;;;;;;;0.65;0.30;;;21.10;99.90;;;;;;5144278;27;20394;-67
2023/06/23 08:04:50;;;;;;;0.20;0.20;;;21.10;99.90;;;;;;5146170;27;20046;-67
2023/06/23 08:07:15;;;;;;;0.20;0.20;;;21.10;99.90;;;;;;5144970;27;20121;-67
2023/06/23 08:09:41;;;;;;;0.00;0.00;;;21.20;99.90;;;;;;5145327;27;20122;-67
2023/06/23 08:12:07;;;;;;;0.08;0.08;;;21.30;99.90;;;;;;5143666;27;20471;-67
2023/06/23 08:14:33;;;;;;;0.00;0.00;;;21.30;99.90;;;;;;5149208;27;20095;-67
2023/06/23 08:16:59;;;;;;;0.10;0.10;;;21.20;99.90;;;;;;5139974;27;20414;-67
2023/06/23 08:19:25;;;;;;;0.22;0.22;;;21.00;99.90;;;;;;5146047;27;20465;-67
2023/06/23 08:21:52;;;;;;;1.55;1.20;;;21.10;99.90;;;;;;5147012;27;20039;-67
2023/06/23 08:24:18;;;;;;;0.20;0.20;;;21.10;99.90;;;;;;5140976;27;20043;-67
2023/06/23 08:26:46;;;;;;;0.08;0.08;;;21.20;99.90;;;;;;5144589;27;20046;-67
2023/06/23 08:29:12;;;;;;;0.80;0.55;;;21.20;99.90;;;;;;5143301;27;20042;-67
2023/06/23 08:31:37;;;;;;;0.85;0.20;;;21.10;99.90;;;;;;5146166;27;20405;-67
2023/06/23 08:34:03;;;;;;;0.98;0.32;;;21.20;99.90;;;;;;5146120;27;20378;-67
2023/06/23 08:36:29;;;;;;;0.30;0.30;;;21.20;99.90;;;;;;5125247;27;23417;-67
2023/06/23 08:38:54;;;;;;;0.00;0.00;;;21.30;99.90;;;;;;5142534;27;20117;-67
2023/06/23 08:41:21;;;;;;;0.00;0.00;;;21.50;99.90;;;;;;5144067;27;20096;-67
2023/06/23 08:43:48;;;;;;;0.25;0.20;;;21.50;99.90;;;;;;5126102;27;20047;-67
2023/06/23 08:46:14;;;;;;;0.65;0.52;;;21.50;99.90;;;;;;5142399;27;20113;-67
2023/06/23 08:48:44;;;;;;;0.00;0.00;;;21.60;99.90;;;;;;5145871;27;20031;-67
2023/06/23 08:51:09;;;;;;;0.00;0.00;;;21.70;99.90;;;;;;5127951;27;20087;-67
2023/06/23 08:53:35;;;;;;;0.22;0.22;;;21.80;99.90;;;;;;5142855;27;20051;-67
2023/06/23 08:56:01;;;;;;;0.00;0.00;;;21.70;99.90;;;;;;5139750;27;20118;-67
2023/06/23 08:58:26;;;;;;;0.73;0.40;;;21.80;99.90;;;;;;5145966;27;20051;-68
2023/06/23 09:00:53;;;;;;;0.00;0.00;;;21.90;99.90;;;;;;5137396;27;20034;-68
2023/06/23 09:03:24;;;;;;;0.20;0.20;;;21.90;99.90;;;;;;5123675;27;20058;-67
2023/06/23 09:05:50;;;;;;;0.08;0.08;;;21.80;99.90;;;;;;5145196;27;20031;-67
2023/06/23 09:08:16;;;;;;;0.28;0.28;;;21.80;99.90;;;;;;5143021;27;20058;-67
2023/06/23 09:10:42;;;;;;;0.38;0.20;;;21.80;99.90;;;;;;5143327;27;20050;-67
2023/06/23 09:13:07;;;;;;;0.32;0.32;;;21.90;99.90;;;;;;5148354;27;20031;-67
2023/06/23 09:15:33;;;;;;;0.68;0.40;;;22.00;99.90;;;;;;5146309;27;20046;-67
2023/06/23 09:18:04;;;;;;;0.90;0.45;;;22.10;99.90;;;;;;5150891;27;20050;-67
2023/06/23 09:20:30;;;;;;;1.10;0.95;;;22.10;99.90;;;;;;5145963;27;20038;-67
2023/06/23 09:22:57;;;;;;;0.40;0.22;;;22.10;99.90;;;;;;5143015;27;20150;-67
2023/06/23 09:25:44;;;;;;;0.00;0.00;;;22.10;99.90;;;;;;5149911;27;20038;-67
2023/06/23 09:28:29;;;;;;;1.77;0.45;;;22.10;99.90;;;;;;5142643;27;20039;-67
2023/06/23 09:30:59;;;;;;;2.63;1.08;;;22.30;99.90;;;;;;5148632;27;20134;-67
2023/06/23 09:33:26;;;;;;;0.20;0.20;;;22.20;99.90;;;;;;5141686;27;20050;-67
2023/06/23 09:35:54;;;;;;;0.30;0.10;;;22.30;99.90;;;;;;5143994;27;20027;-67
2023/06/23 09:38:24;;;;;;;2.35;1.55;;;22.30;99.90;;;;;;5144224;27;20054;-68
2023/06/23 09:41:19;;;;;;;0.28;0.28;;;22.50;99.90;;;;;;5145725;27;20553;-67
2023/06/23 09:43:47;;;;;;;0.22;0.22;;;22.60;99.90;;;;;;5125441;27;20509;-68
2023/06/23 09:46:17;;;;;;;0.47;0.47;;;22.70;99.90;;;;;;5146364;27;20039;-68
2023/06/23 09:48:45;;;;;;;0.70;0.55;;;22.90;99.90;;;;;;5142314;27;20050;-68
2023/06/23 09:51:12;;;;;;;0.00;0.00;;;23.40;99.90;;;;;;5141087;27;20050;-68
2023/06/23 09:53:42;;;;;;;0.52;0.52;;;23.50;99.90;;;;;;5150175;27;20046;-68
2023/06/23 09:56:17;;;;;;;0.28;0.28;;;23.70;99.90;;;;;;5146415;27;20394;-68
2023/06/23 09:58:44;;;;;;;0.43;0.20;;;23.80;99.90;;;;;;5144725;27;20394;-68
2023/06/23 10:01:11;;;;;;;0.45;0.20;;;24.10;99.90;;;;;;5123674;27;20035;-67
2023/06/23 10:03:52;;;;;;;0.50;0.32;;;24.30;99.90;;;;;;5123908;27;20051;-68
2023/06/23 10:06:35;;;;;;;0.00;0.00;;;24.30;99.90;;;;;;5144121;27;20042;-68
2023/06/23 10:09:02;;;;;;;0.00;0.00;;;24.40;99.90;;;;;;5142228;27;20066;-68
2023/06/23 10:11:33;;;;;;;0.00;0.00;;;24.40;99.90;;;;;;5141116;27;20046;-67
2023/06/23 10:14:05;;;;;;;0.05;0.05;;;24.50;99.90;;;;;;5142251;27;20061;-68
2023/06/23 10:16:31;;;;;;;0.75;0.55;;;24.60;99.90;;;;;;5142176;27;20083;-68
2023/06/23 10:18:57;;;;;;;0.55;0.40;;;24.60;99.90;;;;;;5142393;27;20447;-68
2023/06/23 10:21:23;;;;;;;0.17;0.17;;;24.60;99.90;;;;;;5145986;27;20047;-68
2023/06/23 10:23:51;;;;;;;0.75;0.35;;;24.60;99.90;;;;;;5144465;27;20043;-68
2023/06/23 10:26:18;;;;;;;0.17;0.17;;;24.60;99.90;;;;;;5139303;27;20042;-68
2023/06/23 10:28:48;;;;;;;0.03;0.00;;;24.70;99.90;;;;;;5145911;27;20043;-68
2023/06/23 10:31:14;;;;;;;0.38;0.25;;;24.80;99.90;;;;;;5143902;27;20444;-68
2023/06/23 10:33:43;;;;;;;0.30;0.20;;;24.80;99.90;;;;;;5145966;27;20043;-68
2023/06/23 10:36:11;;;;;;;0.00;0.00;;;24.80;99.90;;;;;;5142131;27;20027;-68
2023/06/23 10:38:42;;;;;;;0.38;0.38;;;24.90;99.90;;;;;;5144823;27;20103;-68
2023/06/23 10:41:10;;;;;;;0.43;0.28;;;25.10;99.90;;;;;;5147256;27;20029;-68
2023/06/23 10:43:39;;;;;;;0.00;0.00;;;25.00;99.90;;;;;;5144476;27;20053;-69
2023/06/23 10:46:06;;;;;;;0.22;0.15;;;25.00;99.90;;;;;;5144661;27;20039;-68
2023/06/23 10:48:32;;;;;;;0.20;0.08;;;25.00;99.90;;;;;;5140421;27;20043;-68
2023/06/23 10:50:59;;;;;;;0.25;0.10;;;25.10;99.90;;;;;;5142587;27;20038;-68
2023/06/23 10:53:32;;;;;;;0.15;0.05;;;25.10;99.90;;;;;;5141837;27;20039;-68
2023/06/23 10:55:59;;;;;;;0.00;0.00;;;25.10;99.90;;;;;;5143226;27;20118;-68
2023/06/23 10:58:25;;;;;;;0.00;0.00;;;25.00;99.90;;;;;;5142707;27;20066;-68
2023/06/23 11:00:58;;;;;;;0.15;0.15;;;25.00;99.90;;;;;;5139880;27;20041;-68
2023/06/23 11:03:34;;;;;;;0.00;0.00;;;25.10;99.90;;;;;;5144220;27;20046;-68
2023/06/23 11:06:04;;;;;;;0.52;0.52;;;25.30;99.90;;;;;;5122836;28;20394;-68
2023/06/23 11:08:32;;;;;;;0.30;0.30;;;25.50;99.90;;;;;;5135298;27;20047;-68
2023/06/23 11:11:01;;;;;;;0.70;0.70;;;25.70;99.90;;;;;;5143851;27;20083;-68
2023/06/23 11:13:33;;;;;;;0.10;0.10;;;25.60;99.90;;;;;;5146206;27;20074;-68
2023/06/23 11:16:00;;;;;;;0.08;0.08;;;25.40;99.90;;;;;;5142073;27;20518;-68
2023/06/23 11:18:26;;;;;;;0.03;0.03;;;25.50;99.90;;;;;;5147788;27;20047;-69
2023/06/23 11:20:54;;;;;;;0.20;0.10;;;25.60;99.90;;;;;;5145807;27;20039;-67
2023/06/23 11:23:19;;;;;;;0.10;0.10;;;25.70;99.90;;;;;;5142225;27;20129;-68
2023/06/23 11:25:50;;;;;;;0.15;0.15;;;25.80;99.90;;;;;;5148708;27;20121;-69
2023/06/23 11:28:36;;;;;;;0.30;0.30;;;26.10;99.90;;;;;;5126252;27;20367;-69
2023/06/23 11:31:35;;;;;;;0.05;0.00;;;26.30;99.90;;;;;;5146422;27;20039;-68
2023/06/23 11:34:02;;;;;;;0.00;0.00;;;26.40;99.40;;;;;;5118288;27;20057;-69
2023/06/23 11:36:30;;;;;;;0.00;0.00;;;26.50;99.90;;;;;;5144146;27;20031;-68
2023/06/23 11:38:56;;;;;;;3.30;0.52;;;26.50;99.90;;;;;;5145032;27;20083;-68
2023/06/23 11:41:28;;;;;;;0.10;0.10;;;26.80;99.90;;;;;;5153256;27;20031;-68
2023/06/23 11:43:58;;;;;;;1.17;0.22;;;27.00;99.90;;;;;;5147039;27;20043;-69
2023/06/23 11:46:24;;;;;;;0.57;0.38;;;27.00;99.10;;;;;;5146008;27;20046;-69
2023/06/23 11:48:50;;;;;;;0.20;0.20;;;27.10;99.80;;;;;;5147592;27;20053;-69
2023/06/23 11:51:16;;;;;;;0.00;0.00;;;27.30;99.20;;;;;;5143548;27;20089;-69
2023/06/23 11:53:43;;;;;;;0.20;0.20;;;27.20;99.00;;;;;;5147719;27;20046;-68
2023/06/23 11:56:14;;;;;;;0.30;0.05;;;27.20;98.80;;;;;;5148825;27;20118;-69
2023/06/23 11:58:40;;;;;;;0.00;0.00;;;27.20;97.80;;;;;;5142905;27;20398;-69
2023/06/23 12:01:05;;;;;;;0.00;0.00;;;27.40;98.20;;;;;;5144393;27;20039;-69
2023/06/23 12:03:36;;;;;;;0.00;0.00;;;27.40;97.80;;;;;;5144505;27;20036;-69
2023/06/23 12:06:02;;;;;;;0.57;0.52;;;27.20;97.60;;;;;;5149825;27;20035;-69
2023/06/23 12:08:28;;;;;;;0.38;0.38;;;27.10;98.90;;;;;;5123314;27;20099;-69
2023/06/23 12:10:55;;;;;;;0.00;0.00;;;26.60;98.70;;;;;;5145226;27;20043;-68
2023/06/23 12:13:21;;;;;;;1.33;0.52;;;26.50;98.50;;;;;;5148549;27;20047;-68
2023/06/23 12:15:47;;;;;;;0.00;0.00;;;26.80;98.90;;;;;;5144780;27;20395;-68
2023/06/23 12:18:13;;;;;;;0.25;0.10;;;27.10;98.80;;;;;;5145380;27;20050;-68
2023/06/23 12:20:45;;;;;;;0.00;0.00;;;27.10;99.20;;;;;;5148000;27;20084;-68
2023/06/23 12:23:11;;;;;;;0.00;0.00;;;27.10;99.00;;;;;;5143134;27;20042;-68
2023/06/23 12:25:46;;;;;;;0.32;0.22;;;26.50;99.90;;;;;;5147185;27;20035;-69
2023/06/23 12:28:17;;;;;;;0.00;0.00;;;26.00;99.90;;;;;;5145260;27;20055;-70
2023/06/23 12:30:44;;;;;;;0.32;0.32;;;25.70;99.90;;;;;;5147405;27;20382;-68
2023/06/23 12:33:14;;;;;;;0.00;0.00;;;25.50;99.90;;;;;;5144835;27;20058;-68
2023/06/23 12:35:40;;;;;;;0.00;0.00;;;25.60;99.90;;;;;;5126798;27;20039;-69
2023/06/23 12:38:09;;;;;;;0.30;0.30;;;26.10;99.90;;;;;;5147908;27;20045;-69
2023/06/23 12:40:35;;;;;;;0.00;0.00;;;26.50;99.90;;;;;;5142853;27;20039;-68
2023/06/23 12:43:03;;;;;;;0.65;0.65;;;26.80;99.90;;;;;;5143372;27;20180;-68
2023/06/23 12:45:29;;;;;;;0.00;0.00;;;27.10;99.90;;;;;;5151307;27;20043;-69
2023/06/23 12:47:55;;;;;;;0.03;0.03;;;27.20;99.90;;;;;;5148464;27;20544;-69
2023/06/23 12:50:28;;;;;;;0.00;0.00;;;27.30;99.30;;;;;;5141950;27;20050;-69
2023/06/23 12:52:54;;;;;;;;;;;27.30;99.10;;;;;;5146776;27;20035;-69
2023/06/23 12:55:19;;;;;;;0.10;0.10;;;27.70;99.90;;;;;;5150905;27;20048;-69